sensor_id;sensor_type;location;lat;lon;timestamp;P1;durP1;ratioP1;P2;durP2;ratioP2
966;SDS011;56108;48.730;9.304;2023-02-11T00:00:27;54.83;;;35.00;;
966;SDS011;56108;48.730;9.304;2023-02-11T00:02:35;45.90;;;32.72;;
966;SDS011;56108;48.730;9.304;2023-02-11T00:04:43;47.17;;;33.95;;
966;SDS011;56108;48.730;9.304;2023-02-11T00:06:51;44.78;;;33.60;;
966;SDS011;56108;48.730;9.304;2023-02-11T00:08:59;47.83;;;35.15;;
966;SDS011;56108;48.730;9.304;2023-02-11T00:11:09;47.58;;;34.42;;
966;SDS011;56108;48.730;9.304;2023-02-11T00:13:20;45.75;;;32.42;;
966;SDS011;56108;48.730;9.304;2023-02-11T00:15:30;51.28;;;36.05;;
966;SDS011;56108;48.730;9.304;2023-02-11T00:17:38;43.72;;;34.42;;
966;SDS011;56108;48.730;9.304;2023-02-11T00:19:48;41.78;;;32.25;;
966;SDS011;56108;48.730;9.304;2023-02-11T00:21:56;47.15;;;33.13;;
966;SDS011;56108;48.730;9.304;2023-02-11T00:24:04;44.45;;;32.05;;
966;SDS011;56108;48.730;9.304;2023-02-11T00:26:12;48.00;;;32.42;;
966;SDS011;56108;48.730;9.304;2023-02-11T00:28:23;48.38;;;33.75;;
966;SDS011;56108;48.730;9.304;2023-02-11T00:30:33;44.35;;;33.15;;
966;SDS011;56108;48.730;9.304;2023-02-11T00:32:42;52.65;;;35.85;;
966;SDS011;56108;48.730;9.304;2023-02-11T00:34:50;40.78;;;32.22;;
966;SDS011;56108;48.730;9.304;2023-02-11T00:36:58;46.70;;;32.60;;
966;SDS011;56108;48.730;9.304;2023-02-11T00:39:06;49.00;;;33.20;;
966;SDS011;56108;48.730;9.304;2023-02-11T00:41:18;50.15;;;35.05;;
966;SDS011;56108;48.730;9.304;2023-02-11T00:43:41;49.20;;;33.42;;
966;SDS011;56108;48.730;9.304;2023-02-11T00:45:51;52.08;;;36.08;;
966;SDS011;56108;48.730;9.304;2023-02-11T00:48:00;47.53;;;35.38;;
966;SDS011;56108;48.730;9.304;2023-02-11T00:50:08;45.55;;;33.13;;
966;SDS011;56108;48.730;9.304;2023-02-11T00:52:19;46.75;;;34.42;;
966;SDS011;56108;48.730;9.304;2023-02-11T00:54:27;43.70;;;32.95;;
966;SDS011;56108;48.730;9.304;2023-02-11T00:56:35;46.53;;;33.88;;
966;SDS011;56108;48.730;9.304;2023-02-11T00:58:43;47.53;;;33.35;;
966;SDS011;56108;48.730;9.304;2023-02-11T01:00:53;51.47;;;33.92;;
966;SDS011;56108;48.730;9.304;2023-02-11T01:03:02;48.85;;;33.90;;
966;SDS011;56108;48.730;9.304;2023-02-11T01:05:10;50.67;;;34.83;;
966;SDS011;56108;48.730;9.304;2023-02-11T01:07:18;44.90;;;33.08;;
966;SDS011;56108;48.730;9.304;2023-02-11T01:09:26;47.67;;;34.75;;
966;SDS011;56108;48.730;9.304;2023-02-11T01:11:35;51.95;;;34.60;;
966;SDS011;56108;48.730;9.304;2023-02-11T01:13:43;44.60;;;33.10;;
966;SDS011;56108;48.730;9.304;2023-02-11T01:15:55;44.92;;;33.90;;
966;SDS011;56108;48.730;9.304;2023-02-11T01:18:03;49.55;;;33.45;;
966;SDS011;56108;48.730;9.304;2023-02-11T01:20:12;47.08;;;35.42;;
966;SDS011;56108;48.730;9.304;2023-02-11T01:22:22;47.30;;;33.42;;
966;SDS011;56108;48.730;9.304;2023-02-11T01:24:30;46.17;;;34.03;;
966;SDS011;56108;48.730;9.304;2023-02-11T01:26:38;48.22;;;34.88;;
966;SDS011;56108;48.730;9.304;2023-02-11T01:28:46;43.67;;;33.53;;
966;SDS011;56108;48.730;9.304;2023-02-11T01:30:57;48.38;;;35.92;;
966;SDS011;56108;48.730;9.304;2023-02-11T01:33:06;44.30;;;33.35;;
966;SDS011;56108;48.730;9.304;2023-02-11T01:35:14;40.70;;;31.58;;
966;SDS011;56108;48.730;9.304;2023-02-11T01:37:22;48.30;;;34.95;;
966;SDS011;56108;48.730;9.304;2023-02-11T01:39:31;43.92;;;33.22;;
966;SDS011;56108;48.730;9.304;2023-02-11T01:41:39;47.05;;;34.85;;
966;SDS011;56108;48.730;9.304;2023-02-11T01:43:47;45.60;;;35.33;;
966;SDS011;56108;48.730;9.304;2023-02-11T01:46:00;49.72;;;35.45;;
966;SDS011;56108;48.730;9.304;2023-02-11T01:48:12;44.75;;;35.10;;
966;SDS011;56108;48.730;9.304;2023-02-11T01:50:24;44.33;;;33.15;;
966;SDS011;56108;48.730;9.304;2023-02-11T01:52:35;46.40;;;30.83;;
966;SDS011;56108;48.730;9.304;2023-02-11T01:54:47;47.20;;;33.60;;
966;SDS011;56108;48.730;9.304;2023-02-11T01:57:12;46.40;;;33.60;;
966;SDS011;56108;48.730;9.304;2023-02-11T01:59:29;45.75;;;33.00;;
966;SDS011;56108;48.730;9.304;2023-02-11T02:01:44;42.92;;;32.72;;
966;SDS011;56108;48.730;9.304;2023-02-11T02:03:59;48.80;;;34.92;;
966;SDS011;56108;48.730;9.304;2023-02-11T02:06:11;50.22;;;33.50;;
966;SDS011;56108;48.730;9.304;2023-02-11T02:08:27;46.72;;;33.85;;
966;SDS011;56108;48.730;9.304;2023-02-11T02:10:42;45.50;;;33.97;;
966;SDS011;56108;48.730;9.304;2023-02-11T02:13:00;48.08;;;33.95;;
966;SDS011;56108;48.730;9.304;2023-02-11T02:15:10;50.17;;;33.50;;
966;SDS011;56108;48.730;9.304;2023-02-11T02:17:33;46.38;;;35.60;;
966;SDS011;56108;48.730;9.304;2023-02-11T02:19:56;47.78;;;33.05;;
966;SDS011;56108;48.730;9.304;2023-02-11T02:25:16;48.22;;;33.90;;
966;SDS011;56108;48.730;9.304;2023-02-11T02:27:37;50.15;;;34.85;;
966;SDS011;56108;48.730;9.304;2023-02-11T02:29:59;45.97;;;32.83;;
966;SDS011;56108;48.730;9.304;2023-02-11T02:34:57;46.97;;;32.60;;
966;SDS011;56108;48.730;9.304;2023-02-11T02:37:14;44.63;;;33.00;;
966;SDS011;56108;48.730;9.304;2023-02-11T02:39:33;44.17;;;33.55;;
966;SDS011;56108;48.730;9.304;2023-02-11T02:41:42;45.53;;;34.17;;
966;SDS011;56108;48.730;9.304;2023-02-11T02:43:52;43.00;;;31.80;;
966;SDS011;56108;48.730;9.304;2023-02-11T02:46:10;48.45;;;33.90;;
966;SDS011;56108;48.730;9.304;2023-02-11T02:48:32;45.40;;;33.28;;
966;SDS011;56108;48.730;9.304;2023-02-11T02:50:40;41.53;;;30.25;;
966;SDS011;56108;48.730;9.304;2023-02-11T02:52:51;47.28;;;33.58;;
966;SDS011;56108;48.730;9.304;2023-02-11T02:55:08;45.20;;;32.83;;
966;SDS011;56108;48.730;9.304;2023-02-11T02:57:28;49.00;;;33.13;;
966;SDS011;56108;48.730;9.304;2023-02-11T02:59:44;41.67;;;30.75;;
966;SDS011;56108;48.730;9.304;2023-02-11T03:02:04;43.88;;;31.38;;
966;SDS011;56108;48.730;9.304;2023-02-11T03:04:23;50.92;;;33.78;;
966;SDS011;56108;48.730;9.304;2023-02-11T03:06:40;45.95;;;31.52;;
966;SDS011;56108;48.730;9.304;2023-02-11T03:08:55;44.55;;;32.90;;
966;SDS011;56108;48.730;9.304;2023-02-11T03:11:09;43.63;;;31.88;;
966;SDS011;56108;48.730;9.304;2023-02-11T03:13:20;49.53;;;34.08;;
966;SDS011;56108;48.730;9.304;2023-02-11T03:15:33;41.65;;;32.58;;
966;SDS011;56108;48.730;9.304;2023-02-11T03:17:47;48.00;;;34.10;;
966;SDS011;56108;48.730;9.304;2023-02-11T03:20:00;45.50;;;34.47;;
966;SDS011;56108;48.730;9.304;2023-02-11T03:22:12;45.10;;;32.30;;
966;SDS011;56108;48.730;9.304;2023-02-11T03:24:27;44.78;;;32.97;;
966;SDS011;56108;48.730;9.304;2023-02-11T03:26:39;48.85;;;34.30;;
966;SDS011;56108;48.730;9.304;2023-02-11T03:28:53;45.08;;;34.40;;
966;SDS011;56108;48.730;9.304;2023-02-11T03:31:10;44.70;;;33.92;;
966;SDS011;56108;48.730;9.304;2023-02-11T03:33:26;47.38;;;33.35;;
966;SDS011;56108;48.730;9.304;2023-02-11T03:35:42;41.92;;;32.38;;
966;SDS011;56108;48.730;9.304;2023-02-11T03:37:59;48.05;;;33.15;;
966;SDS011;56108;48.730;9.304;2023-02-11T03:40:12;47.22;;;33.83;;
966;SDS011;56108;48.730;9.304;2023-02-11T03:42:24;44.38;;;32.17;;
966;SDS011;56108;48.730;9.304;2023-02-11T03:44:37;45.47;;;32.90;;
966;SDS011;56108;48.730;9.304;2023-02-11T03:46:50;46.55;;;34.38;;
966;SDS011;56108;48.730;9.304;2023-02-11T03:49:02;47.00;;;32.40;;
966;SDS011;56108;48.730;9.304;2023-02-11T03:51:15;41.22;;;32.33;;
966;SDS011;56108;48.730;9.304;2023-02-11T03:53:49;46.13;;;32.72;;
966;SDS011;56108;48.730;9.304;2023-02-11T03:56:02;45.78;;;33.08;;
966;SDS011;56108;48.730;9.304;2023-02-11T03:58:13;44.65;;;32.42;;
966;SDS011;56108;48.730;9.304;2023-02-11T04:00:27;43.10;;;31.02;;
966;SDS011;56108;48.730;9.304;2023-02-11T04:02:36;43.47;;;32.58;;
966;SDS011;56108;48.730;9.304;2023-02-11T04:04:45;44.38;;;31.63;;
966;SDS011;56108;48.730;9.304;2023-02-11T04:06:56;42.88;;;33.38;;
966;SDS011;56108;48.730;9.304;2023-02-11T04:09:04;51.22;;;33.90;;
966;SDS011;56108;48.730;9.304;2023-02-11T04:11:13;44.35;;;32.90;;
966;SDS011;56108;48.730;9.304;2023-02-11T04:13:20;44.40;;;32.20;;
966;SDS011;56108;48.730;9.304;2023-02-11T04:15:28;45.25;;;32.38;;
966;SDS011;56108;48.730;9.304;2023-02-11T04:17:36;45.50;;;33.72;;
966;SDS011;56108;48.730;9.304;2023-02-11T04:19:45;45.33;;;34.38;;
966;SDS011;56108;48.730;9.304;2023-02-11T04:21:52;45.05;;;32.80;;
966;SDS011;56108;48.730;9.304;2023-02-11T04:24:08;43.67;;;33.47;;
966;SDS011;56108;48.730;9.304;2023-02-11T04:26:27;41.58;;;31.55;;
966;SDS011;56108;48.730;9.304;2023-02-11T04:28:35;45.53;;;30.38;;
966;SDS011;56108;48.730;9.304;2023-02-11T04:30:43;45.78;;;32.47;;
966;SDS011;56108;48.730;9.304;2023-02-11T04:32:51;45.17;;;32.95;;
966;SDS011;56108;48.730;9.304;2023-02-11T04:35:00;41.97;;;32.97;;
966;SDS011;56108;48.730;9.304;2023-02-11T04:37:12;43.05;;;31.80;;
966;SDS011;56108;48.730;9.304;2023-02-11T04:39:20;47.70;;;33.55;;
966;SDS011;56108;48.730;9.304;2023-02-11T04:41:28;46.30;;;34.65;;
966;SDS011;56108;48.730;9.304;2023-02-11T04:43:36;44.25;;;33.33;;
966;SDS011;56108;48.730;9.304;2023-02-11T04:45:44;45.90;;;32.80;;
966;SDS011;56108;48.730;9.304;2023-02-11T04:47:52;43.63;;;33.45;;
966;SDS011;56108;48.730;9.304;2023-02-11T04:50:00;44.85;;;33.35;;
966;SDS011;56108;48.730;9.304;2023-02-11T04:52:11;39.88;;;29.98;;
966;SDS011;56108;48.730;9.304;2023-02-11T04:54:20;46.08;;;33.03;;
966;SDS011;56108;48.730;9.304;2023-02-11T04:56:28;49.08;;;36.05;;
966;SDS011;56108;48.730;9.304;2023-02-11T04:58:36;45.88;;;35.53;;
966;SDS011;56108;48.730;9.304;2023-02-11T05:00:44;47.67;;;33.75;;
966;SDS011;56108;48.730;9.304;2023-02-11T05:02:53;49.28;;;35.90;;
966;SDS011;56108;48.730;9.304;2023-02-11T05:05:01;46.85;;;34.42;;
966;SDS011;56108;48.730;9.304;2023-02-11T05:07:12;44.65;;;34.17;;
966;SDS011;56108;48.730;9.304;2023-02-11T05:09:20;45.47;;;32.85;;
966;SDS011;56108;48.730;9.304;2023-02-11T05:11:28;41.55;;;33.03;;
966;SDS011;56108;48.730;9.304;2023-02-11T05:13:36;43.63;;;33.10;;
966;SDS011;56108;48.730;9.304;2023-02-11T05:15:44;45.40;;;32.75;;
966;SDS011;56108;48.730;9.304;2023-02-11T05:17:52;45.38;;;33.15;;
966;SDS011;56108;48.730;9.304;2023-02-11T05:20:00;48.22;;;36.15;;
966;SDS011;56108;48.730;9.304;2023-02-11T05:22:08;46.20;;;36.47;;
966;SDS011;56108;48.730;9.304;2023-02-11T05:24:19;52.60;;;34.25;;
966;SDS011;56108;48.730;9.304;2023-02-11T05:26:27;41.67;;;32.47;;
966;SDS011;56108;48.730;9.304;2023-02-11T05:28:35;46.28;;;32.60;;
966;SDS011;56108;48.730;9.304;2023-02-11T05:30:43;41.90;;;32.90;;
966;SDS011;56108;48.730;9.304;2023-02-11T05:32:51;48.08;;;35.50;;
966;SDS011;56108;48.730;9.304;2023-02-11T05:35:00;45.80;;;34.10;;
966;SDS011;56108;48.730;9.304;2023-02-11T05:37:08;45.53;;;32.67;;
966;SDS011;56108;48.730;9.304;2023-02-11T05:39:19;45.40;;;32.50;;
966;SDS011;56108;48.730;9.304;2023-02-11T05:41:27;43.33;;;31.67;;
966;SDS011;56108;48.730;9.304;2023-02-11T05:43:35;42.20;;;32.42;;
966;SDS011;56108;48.730;9.304;2023-02-11T05:45:43;45.50;;;33.70;;
966;SDS011;56108;48.730;9.304;2023-02-11T05:47:51;43.88;;;32.33;;
966;SDS011;56108;48.730;9.304;2023-02-11T05:49:59;41.97;;;31.15;;
966;SDS011;56108;48.730;9.304;2023-02-11T05:52:07;42.08;;;30.70;;
966;SDS011;56108;48.730;9.304;2023-02-11T05:54:15;51.72;;;31.10;;
966;SDS011;56108;48.730;9.304;2023-02-11T05:56:26;38.55;;;30.42;;
966;SDS011;56108;48.730;9.304;2023-02-11T05:58:34;45.03;;;31.00;;
966;SDS011;56108;48.730;9.304;2023-02-11T06:00:42;47.05;;;31.08;;
966;SDS011;56108;48.730;9.304;2023-02-11T06:02:50;45.90;;;33.05;;
966;SDS011;56108;48.730;9.304;2023-02-11T06:04:58;44.53;;;34.97;;
966;SDS011;56108;48.730;9.304;2023-02-11T06:07:06;43.03;;;33.17;;
966;SDS011;56108;48.730;9.304;2023-02-11T06:09:14;42.25;;;33.15;;
966;SDS011;56108;48.730;9.304;2023-02-11T06:11:22;45.95;;;32.65;;
966;SDS011;56108;48.730;9.304;2023-02-11T06:13:33;43.65;;;32.80;;
966;SDS011;56108;48.730;9.304;2023-02-11T06:15:41;44.03;;;33.33;;
966;SDS011;56108;48.730;9.304;2023-02-11T06:17:52;48.78;;;32.42;;
966;SDS011;56108;48.730;9.304;2023-02-11T06:20:00;45.88;;;31.80;;
966;SDS011;56108;48.730;9.304;2023-02-11T06:22:10;43.42;;;32.15;;
966;SDS011;56108;48.730;9.304;2023-02-11T06:24:18;45.42;;;31.27;;
966;SDS011;56108;48.730;9.304;2023-02-11T06:26:46;46.40;;;33.33;;
966;SDS011;56108;48.730;9.304;2023-02-11T06:28:58;46.22;;;34.35;;
966;SDS011;56108;48.730;9.304;2023-02-11T06:31:06;45.55;;;34.08;;
966;SDS011;56108;48.730;9.304;2023-02-11T06:33:15;42.63;;;33.30;;
966;SDS011;56108;48.730;9.304;2023-02-11T06:35:23;42.45;;;32.00;;
966;SDS011;56108;48.730;9.304;2023-02-11T06:37:32;42.53;;;31.38;;
966;SDS011;56108;48.730;9.304;2023-02-11T06:39:42;39.58;;;31.30;;
966;SDS011;56108;48.730;9.304;2023-02-11T06:41:51;45.28;;;33.72;;
966;SDS011;56108;48.730;9.304;2023-02-11T06:44:02;41.72;;;31.63;;
966;SDS011;56108;48.730;9.304;2023-02-11T06:46:10;45.58;;;31.30;;
966;SDS011;56108;48.730;9.304;2023-02-11T06:48:19;43.85;;;30.50;;
966;SDS011;56108;48.730;9.304;2023-02-11T06:50:26;44.83;;;32.03;;
966;SDS011;56108;48.730;9.304;2023-02-11T06:52:34;42.72;;;30.48;;
966;SDS011;56108;48.730;9.304;2023-02-11T06:54:42;42.95;;;32.67;;
966;SDS011;56108;48.730;9.304;2023-02-11T06:56:50;42.72;;;33.38;;
966;SDS011;56108;48.730;9.304;2023-02-11T06:58:58;48.42;;;34.03;;
966;SDS011;56108;48.730;9.304;2023-02-11T07:01:10;43.20;;;31.48;;
966;SDS011;56108;48.730;9.304;2023-02-11T07:03:20;48.35;;;34.40;;
966;SDS011;56108;48.730;9.304;2023-02-11T07:05:28;43.55;;;33.47;;
966;SDS011;56108;48.730;9.304;2023-02-11T07:07:37;40.65;;;31.75;;
966;SDS011;56108;48.730;9.304;2023-02-11T07:09:45;43.47;;;32.05;;
966;SDS011;56108;48.730;9.304;2023-02-11T07:11:53;45.63;;;32.78;;
966;SDS011;56108;48.730;9.304;2023-02-11T07:14:02;44.50;;;34.75;;
966;SDS011;56108;48.730;9.304;2023-02-11T07:16:16;41.35;;;32.08;;
966;SDS011;56108;48.730;9.304;2023-02-11T07:18:25;41.90;;;33.85;;
966;SDS011;56108;48.730;9.304;2023-02-11T07:20:33;45.28;;;31.90;;
966;SDS011;56108;48.730;9.304;2023-02-11T07:22:43;43.80;;;33.55;;
966;SDS011;56108;48.730;9.304;2023-02-11T07:24:50;44.88;;;32.83;;
966;SDS011;56108;48.730;9.304;2023-02-11T07:26:58;45.58;;;32.15;;
966;SDS011;56108;48.730;9.304;2023-02-11T07:29:06;42.53;;;34.20;;
966;SDS011;56108;48.730;9.304;2023-02-11T07:31:17;40.15;;;31.17;;
966;SDS011;56108;48.730;9.304;2023-02-11T07:33:27;44.80;;;33.67;;
966;SDS011;56108;48.730;9.304;2023-02-11T07:35:35;46.95;;;32.40;;
966;SDS011;56108;48.730;9.304;2023-02-11T07:37:46;45.40;;;32.47;;
966;SDS011;56108;48.730;9.304;2023-02-11T07:39:53;44.20;;;34.78;;
966;SDS011;56108;48.730;9.304;2023-02-11T07:42:02;45.40;;;33.63;;
966;SDS011;56108;48.730;9.304;2023-02-11T07:44:10;45.92;;;34.10;;
966;SDS011;56108;48.730;9.304;2023-02-11T07:46:21;42.05;;;32.30;;
966;SDS011;56108;48.730;9.304;2023-02-11T07:48:31;45.20;;;33.13;;
966;SDS011;56108;48.730;9.304;2023-02-11T07:50:39;38.90;;;32.53;;
966;SDS011;56108;48.730;9.304;2023-02-11T07:52:47;42.42;;;32.78;;
966;SDS011;56108;48.730;9.304;2023-02-11T07:54:55;44.05;;;34.75;;
966;SDS011;56108;48.730;9.304;2023-02-11T07:57:04;42.15;;;32.53;;
966;SDS011;56108;48.730;9.304;2023-02-11T07:59:12;46.35;;;33.60;;
966;SDS011;56108;48.730;9.304;2023-02-11T08:01:23;40.95;;;31.50;;
966;SDS011;56108;48.730;9.304;2023-02-11T08:03:32;41.83;;;33.35;;
966;SDS011;56108;48.730;9.304;2023-02-11T08:05:41;42.13;;;32.20;;
966;SDS011;56108;48.730;9.304;2023-02-11T08:07:49;47.00;;;33.40;;
966;SDS011;56108;48.730;9.304;2023-02-11T08:09:58;39.10;;;31.60;;
966;SDS011;56108;48.730;9.304;2023-02-11T08:12:06;43.83;;;34.50;;
966;SDS011;56108;48.730;9.304;2023-02-11T08:14:14;48.85;;;35.35;;
966;SDS011;56108;48.730;9.304;2023-02-11T08:16:25;46.15;;;34.20;;
966;SDS011;56108;48.730;9.304;2023-02-11T08:18:35;45.55;;;33.03;;
966;SDS011;56108;48.730;9.304;2023-02-11T08:20:45;45.42;;;34.67;;
966;SDS011;56108;48.730;9.304;2023-02-11T08:22:54;46.15;;;33.42;;
966;SDS011;56108;48.730;9.304;2023-02-11T08:25:02;47.05;;;33.58;;
966;SDS011;56108;48.730;9.304;2023-02-11T08:27:11;42.65;;;32.20;;
966;SDS011;56108;48.730;9.304;2023-02-11T08:29:19;44.45;;;33.30;;
966;SDS011;56108;48.730;9.304;2023-02-11T08:31:32;43.08;;;33.38;;
966;SDS011;56108;48.730;9.304;2023-02-11T08:33:41;49.40;;;33.78;;
966;SDS011;56108;48.730;9.304;2023-02-11T08:35:49;45.25;;;32.50;;
966;SDS011;56108;48.730;9.304;2023-02-11T08:37:57;45.17;;;33.08;;
966;SDS011;56108;48.730;9.304;2023-02-11T08:40:08;45.30;;;34.67;;
966;SDS011;56108;48.730;9.304;2023-02-11T08:42:17;45.25;;;32.95;;
966;SDS011;56108;48.730;9.304;2023-02-11T08:44:25;43.35;;;34.47;;
966;SDS011;56108;48.730;9.304;2023-02-11T08:46:36;42.80;;;31.02;;
966;SDS011;56108;48.730;9.304;2023-02-11T08:48:44;40.92;;;32.28;;
966;SDS011;56108;48.730;9.304;2023-02-11T08:50:56;44.63;;;33.03;;
966;SDS011;56108;48.730;9.304;2023-02-11T08:53:04;42.05;;;32.83;;
966;SDS011;56108;48.730;9.304;2023-02-11T08:55:12;46.55;;;34.60;;
966;SDS011;56108;48.730;9.304;2023-02-11T08:57:20;45.30;;;35.10;;
966;SDS011;56108;48.730;9.304;2023-02-11T08:59:28;44.58;;;33.88;;
966;SDS011;56108;48.730;9.304;2023-02-11T09:01:39;45.22;;;34.75;;
966;SDS011;56108;48.730;9.304;2023-02-11T09:03:48;43.55;;;33.28;;
966;SDS011;56108;48.730;9.304;2023-02-11T09:05:56;49.75;;;35.75;;
966;SDS011;56108;48.730;9.304;2023-02-11T09:08:04;46.05;;;36.03;;
966;SDS011;56108;48.730;9.304;2023-02-11T09:10:12;42.70;;;34.17;;
966;SDS011;56108;48.730;9.304;2023-02-11T09:12:20;48.92;;;36.05;;
966;SDS011;56108;48.730;9.304;2023-02-11T09:14:28;46.92;;;35.33;;
966;SDS011;56108;48.730;9.304;2023-02-11T09:16:39;47.28;;;36.90;;
966;SDS011;56108;48.730;9.304;2023-02-11T09:18:49;46.70;;;35.90;;
966;SDS011;56108;48.730;9.304;2023-02-11T09:21:00;42.67;;;32.65;;
966;SDS011;56108;48.730;9.304;2023-02-11T09:23:11;44.35;;;35.10;;
966;SDS011;56108;48.730;9.304;2023-02-11T09:25:22;48.33;;;35.13;;
966;SDS011;56108;48.730;9.304;2023-02-11T09:27:29;44.78;;;33.28;;
966;SDS011;56108;48.730;9.304;2023-02-11T09:29:37;44.22;;;33.38;;
966;SDS011;56108;48.730;9.304;2023-02-11T09:31:48;38.72;;;31.85;;
966;SDS011;56108;48.730;9.304;2023-02-11T09:33:57;44.83;;;34.22;;
966;SDS011;56108;48.730;9.304;2023-02-11T09:36:07;42.30;;;34.03;;
966;SDS011;56108;48.730;9.304;2023-02-11T09:38:15;42.78;;;34.38;;
966;SDS011;56108;48.730;9.304;2023-02-11T09:40:23;39.13;;;33.75;;
966;SDS011;56108;48.730;9.304;2023-02-11T09:42:36;37.38;;;31.38;;
966;SDS011;56108;48.730;9.304;2023-02-11T09:44:50;36.38;;;30.20;;
966;SDS011;56108;48.730;9.304;2023-02-11T09:47:02;37.33;;;30.98;;
966;SDS011;56108;48.730;9.304;2023-02-11T09:49:14;35.47;;;29.98;;
966;SDS011;56108;48.730;9.304;2023-02-11T09:51:31;33.75;;;27.25;;
966;SDS011;56108;48.730;9.304;2023-02-11T09:53:42;33.22;;;29.38;;
966;SDS011;56108;48.730;9.304;2023-02-11T09:55:51;36.60;;;30.25;;
966;SDS011;56108;48.730;9.304;2023-02-11T09:58:03;33.75;;;29.38;;
966;SDS011;56108;48.730;9.304;2023-02-11T10:00:19;30.55;;;27.27;;
966;SDS011;56108;48.730;9.304;2023-02-11T10:02:34;30.83;;;27.52;;
966;SDS011;56108;48.730;9.304;2023-02-11T10:05:02;32.40;;;28.80;;
966;SDS011;56108;48.730;9.304;2023-02-11T10:07:20;31.98;;;28.02;;
966;SDS011;56108;48.730;9.304;2023-02-11T10:09:39;32.42;;;28.92;;
966;SDS011;56108;48.730;9.304;2023-02-11T10:11:59;32.38;;;28.98;;
966;SDS011;56108;48.730;9.304;2023-02-11T10:14:21;34.00;;;29.85;;
966;SDS011;56108;48.730;9.304;2023-02-11T10:16:45;33.65;;;29.95;;
966;SDS011;56108;48.730;9.304;2023-02-11T10:19:07;36.63;;;32.83;;
966;SDS011;56108;48.730;9.304;2023-02-11T10:21:28;39.20;;;34.38;;
966;SDS011;56108;48.730;9.304;2023-02-11T10:23:46;37.03;;;33.10;;
966;SDS011;56108;48.730;9.304;2023-02-11T10:25:57;37.13;;;33.22;;
966;SDS011;56108;48.730;9.304;2023-02-11T10:28:10;37.00;;;33.05;;
966;SDS011;56108;48.730;9.304;2023-02-11T10:30:22;37.08;;;33.03;;
966;SDS011;56108;48.730;9.304;2023-02-11T10:32:37;36.15;;;32.38;;
966;SDS011;56108;48.730;9.304;2023-02-11T10:34:53;33.60;;;29.90;;
966;SDS011;56108;48.730;9.304;2023-02-11T10:37:05;34.72;;;30.15;;
966;SDS011;56108;48.730;9.304;2023-02-11T10:39:14;36.83;;;31.05;;
966;SDS011;56108;48.730;9.304;2023-02-11T10:41:23;36.33;;;31.35;;
966;SDS011;56108;48.730;9.304;2023-02-11T10:43:36;38.42;;;31.90;;
966;SDS011;56108;48.730;9.304;2023-02-11T10:45:46;37.40;;;32.28;;
966;SDS011;56108;48.730;9.304;2023-02-11T10:47:55;32.47;;;29.08;;
966;SDS011;56108;48.730;9.304;2023-02-11T10:50:15;34.33;;;29.77;;
966;SDS011;56108;48.730;9.304;2023-02-11T10:52:26;35.38;;;31.35;;
966;SDS011;56108;48.730;9.304;2023-02-11T10:54:34;36.60;;;31.05;;
966;SDS011;56108;48.730;9.304;2023-02-11T10:56:43;33.80;;;30.05;;
966;SDS011;56108;48.730;9.304;2023-02-11T10:58:54;34.58;;;28.58;;
966;SDS011;56108;48.730;9.304;2023-02-11T11:01:05;33.40;;;29.60;;
966;SDS011;56108;48.730;9.304;2023-02-11T11:03:28;32.70;;;28.58;;
966;SDS011;56108;48.730;9.304;2023-02-11T11:05:47;31.40;;;28.10;;
966;SDS011;56108;48.730;9.304;2023-02-11T11:08:01;35.97;;;30.40;;
966;SDS011;56108;48.730;9.304;2023-02-11T11:10:24;34.72;;;31.13;;
966;SDS011;56108;48.730;9.304;2023-02-11T11:12:35;33.38;;;29.88;;
966;SDS011;56108;48.730;9.304;2023-02-11T11:14:53;33.35;;;29.23;;
966;SDS011;56108;48.730;9.304;2023-02-11T11:17:10;35.65;;;29.55;;
966;SDS011;56108;48.730;9.304;2023-02-11T11:19:25;38.55;;;30.75;;
966;SDS011;56108;48.730;9.304;2023-02-11T11:21:39;31.83;;;26.55;;
966;SDS011;56108;48.730;9.304;2023-02-11T11:23:50;25.48;;;22.83;;
966;SDS011;56108;48.730;9.304;2023-02-11T11:26:02;22.83;;;20.15;;
966;SDS011;56108;48.730;9.304;2023-02-11T11:28:18;22.80;;;20.48;;
966;SDS011;56108;48.730;9.304;2023-02-11T11:30:30;24.63;;;22.00;;
966;SDS011;56108;48.730;9.304;2023-02-11T11:32:45;24.42;;;20.55;;
966;SDS011;56108;48.730;9.304;2023-02-11T11:34:54;21.88;;;18.50;;
966;SDS011;56108;48.730;9.304;2023-02-11T11:37:12;22.95;;;18.48;;
966;SDS011;56108;48.730;9.304;2023-02-11T11:39:26;32.03;;;25.80;;
966;SDS011;56108;48.730;9.304;2023-02-11T11:41:36;33.70;;;29.05;;
966;SDS011;56108;48.730;9.304;2023-02-11T11:43:57;32.40;;;28.77;;
966;SDS011;56108;48.730;9.304;2023-02-11T11:46:10;35.05;;;31.25;;
966;SDS011;56108;48.730;9.304;2023-02-11T11:48:19;33.85;;;27.05;;
966;SDS011;56108;48.730;9.304;2023-02-11T11:50:32;35.47;;;27.80;;
966;SDS011;56108;48.730;9.304;2023-02-11T11:52:52;32.55;;;28.10;;
966;SDS011;56108;48.730;9.304;2023-02-11T11:55:05;30.30;;;25.15;;
966;SDS011;56108;48.730;9.304;2023-02-11T11:57:24;30.40;;;23.27;;
966;SDS011;56108;48.730;9.304;2023-02-11T11:59:34;25.88;;;23.05;;
966;SDS011;56108;48.730;9.304;2023-02-11T12:01:46;27.73;;;24.35;;
966;SDS011;56108;48.730;9.304;2023-02-11T12:06:44;29.58;;;24.58;;
966;SDS011;56108;48.730;9.304;2023-02-11T12:09:07;29.55;;;22.60;;
966;SDS011;56108;48.730;9.304;2023-02-11T12:11:23;24.05;;;21.00;;
966;SDS011;56108;48.730;9.304;2023-02-11T12:13:39;23.73;;;19.02;;
966;SDS011;56108;48.730;9.304;2023-02-11T12:16:16;21.13;;;18.05;;
966;SDS011;56108;48.730;9.304;2023-02-11T12:18:33;20.10;;;17.33;;
966;SDS011;56108;48.730;9.304;2023-02-11T12:21:14;19.85;;;16.55;;
966;SDS011;56108;48.730;9.304;2023-02-11T12:23:37;22.70;;;19.45;;
966;SDS011;56108;48.730;9.304;2023-02-11T12:25:59;21.48;;;19.25;;
966;SDS011;56108;48.730;9.304;2023-02-11T12:28:18;21.60;;;18.45;;
966;SDS011;56108;48.730;9.304;2023-02-11T12:33:09;24.95;;;18.35;;
966;SDS011;56108;48.730;9.304;2023-02-11T12:35:27;20.98;;;18.42;;
966;SDS011;56108;48.730;9.304;2023-02-11T12:37:48;19.67;;;17.27;;
966;SDS011;56108;48.730;9.304;2023-02-11T12:40:14;20.05;;;18.05;;
966;SDS011;56108;48.730;9.304;2023-02-11T12:42:42;24.73;;;18.10;;
966;SDS011;56108;48.730;9.304;2023-02-11T12:45:16;21.25;;;18.95;;
966;SDS011;56108;48.730;9.304;2023-02-11T12:47:32;20.35;;;18.15;;
966;SDS011;56108;48.730;9.304;2023-02-11T12:49:57;20.52;;;18.30;;
966;SDS011;56108;48.730;9.304;2023-02-11T12:52:18;19.00;;;16.92;;
966;SDS011;56108;48.730;9.304;2023-02-11T12:54:37;19.20;;;17.10;;
966;SDS011;56108;48.730;9.304;2023-02-11T12:56:53;18.70;;;16.60;;
966;SDS011;56108;48.730;9.304;2023-02-11T12:59:10;20.25;;;17.08;;
966;SDS011;56108;48.730;9.304;2023-02-11T13:01:24;19.85;;;17.73;;
966;SDS011;56108;48.730;9.304;2023-02-11T13:03:36;18.30;;;16.05;;
966;SDS011;56108;48.730;9.304;2023-02-11T13:05:48;19.05;;;16.35;;
966;SDS011;56108;48.730;9.304;2023-02-11T13:08:01;18.33;;;16.05;;
966;SDS011;56108;48.730;9.304;2023-02-11T13:10:16;19.70;;;15.95;;
966;SDS011;56108;48.730;9.304;2023-02-11T13:12:31;16.02;;;14.32;;
966;SDS011;56108;48.730;9.304;2023-02-11T13:14:57;15.50;;;13.73;;
966;SDS011;56108;48.730;9.304;2023-02-11T13:17:11;19.42;;;13.30;;
966;SDS011;56108;48.730;9.304;2023-02-11T13:19:24;16.02;;;14.43;;
966;SDS011;56108;48.730;9.304;2023-02-11T13:21:50;14.48;;;12.23;;
966;SDS011;56108;48.730;9.304;2023-02-11T13:24:08;12.63;;;11.32;;
966;SDS011;56108;48.730;9.304;2023-02-11T13:26:26;12.98;;;11.68;;